• Join FlightAware (Why Join?)
  • Login
  • US Flag 
02:55AM EDT


 

Airport Tracker/Info


-or-


 

Live Flight TrackerFlight Track Log ✈ XOJ552 ✈ 05-Jul-2013 ✈ KBED - TXKF / BDA

Flight Track Log - Related Links

Times and Time Zones

All times are in EDT time to prevent confusion due to time zone crossing. See the XOJ552 flight status page for this flight to view local times or setup timezone preferences in your user account.

Time Position Orientation Groundspeed Altitude Reporting Facility
EDT Latitude Longitude Course Direction KTS MPH feet Rate Location/Type
02:39PM 42.4667 -71.3167 251° West 157 181 1,000  Level KA90
02:40PM 42.4500 -71.3833 251° West 235 270 3,500 3,060 Climbing KA90
02:41PM 42.3667 -71.4000 188° South 277 319 6,900 3,420 Climbing KA90
02:42PM 42.3000 -71.3667 160° South 313 360 10,400 3,480 Climbing KA90
02:43PM 42.2500 -71.2667 124° Southeast 322 371 13,900 1,620 Climbing KA90
02:44PM 42.2097 -71.1450 114° Southeast 367 422 14,100 60 Climbing Boston Center
02:45PM 42.1683 -71.0114 113° Southeast 353 406 14,100 -60 Level Boston Center
02:46PM 42.1272 -70.8919 115° Southeast 376 433 14,000 1,080 Descending Boston Center
02:48PM 41.9508 -70.6564 135° Southeast 385 443 17,700 1,680 Climbing Boston Center
02:49PM 41.8575 -70.5531 140° Southeast 408 470 19,500 1,740 Climbing Boston Center
02:50PM 41.7703 -70.4611 142° Southeast 425 489 21,200 1,740 Climbing Boston Center
02:51PM 41.6811 -70.3636 141° Southeast 437 503 23,000 1,800 Climbing Boston Center
02:52PM 41.5750 -70.2589 144° Southeast 445 512 24,800 1,740 Climbing Boston Center
02:53PM 41.4769 -70.1542 141° Southeast 451 519 26,500 1,560 Climbing Boston Center
02:55PM 41.3289 -70.0044 143° Southeast 454 522 28,800 1,440 Climbing New York Center
02:56PM 41.2261 -69.8953 141° Southeast 469 540 30,200 1,080 Climbing New York Center
02:57PM 41.1214 -69.7892 143° Southeast 474 545 31,000 360 Climbing New York Center
02:58PM 41.0142 -69.6778 142° Southeast 479 551 31,000  Level New York Center
02:59PM 40.9028 -69.5669 143° Southeast 491 565 31,000  Level New York Center
03:00PM 40.7808 -69.4458 143° Southeast 502 578 31,000  Level New York Center
03:01PM 40.6689 -69.3300 142° Southeast 507 583 31,000  Level New York Center
03:02PM 40.5594 -69.2203 143° Southeast 512 589 31,000  Level New York Center
03:03PM 40.4494 -69.1081 142° Southeast 512 589 31,000  Level New York Center
03:04PM 40.3397 -68.9964 142° Southeast 512 589 31,000  Level New York Center
03:05PM 40.2278 -68.8931 145° Southeast 506 582 31,000  Level New York Center
03:06PM 40.1194 -68.7764 141° Southeast 506 582 31,000  Level New York Center
03:07PM 40.0094 -68.6711 144° Southeast 506 582 31,000  Level New York Center
03:08PM 39.8992 -68.5661 144° Southeast 506 582 31,000  Level New York Center
03:09PM 39.7908 -68.4533 141° Southeast 500 575 31,000  Level New York Center
03:10PM 39.6803 -68.3461 143° Southeast 500 575 31,000  Level New York Center
03:11PM 39.5678 -68.2422 145° Southeast 500 575 31,000  Level New York Center
03:12PM 39.4572 -68.1383 144° Southeast 500 575 31,000  Level New York Center
03:13PM 39.3464 -68.0325 144° Southeast 500 575 31,000  Level New York Center
03:14PM 39.2356 -67.9292 144° Southeast 495 570 31,000  Level New York Center
03:15PM 39.1522 -67.8389 140° Southeast 495 570 31,000  Level New York Center
03:16PM 39.0197 -67.7106 143° Southeast 495 570 31,000  Level New York Center
03:17PM 38.9086 -67.6111 145° Southeast 495 570 31,000  Level New York Center
03:18PM 38.7878 -67.5308 153° Southeast 490 564 31,000  Level New York Center
03:19PM 38.6853 -67.4503 148° Southeast 490 564 31,000  Level New York Center
03:20PM 38.8833 -67.5667 157° South 505 581 31,000  Level New York Oceanic (ODAPS)
03:20PM 38.5683 -67.3625 157° South 490 564 31,000  Level New York Center
03:21PM 38.4511 -67.2750 150° Southeast 490 564 31,000  Level New York Center
03:22PM 38.3336 -67.1881 150° Southeast 490 564 31,000  Level New York Center
03:23PM 38.2867 -67.1531 150° Southeast 490 564 31,000  Level New York Center
03:25PM 38.2867 -67.1531 134° Southeast 490 564 31,000  Level New York Center
03:27PM 38.2867 -67.1531 134° Southeast 490 564 31,000  Level New York Center
03:29PM 38.2867 -67.1531 134° Southeast 490 564 31,000  Level New York Center
03:31PM 38.2867 -67.1531 134° Southeast 490 564 31,000  Level New York Center
03:31PM 37.4500 -66.8167 157° South 475 547 31,000  Level New York Oceanic (ODAPS)
03:33PM 38.2867 -67.1531 157° South 490 564 31,000  Level New York Center
03:35PM 38.2867 -67.1531 134° Southeast 490 564 31,000  Level New York Center
03:37PM 38.2867 -67.1531 134° Southeast 490 564 31,000  Level New York Center
03:39PM 38.2867 -67.1531 134° Southeast 490 564 31,000  Level New York Center
03:41PM 38.2867 -67.1531 134° Southeast 490 564 31,000  Level New York Center
03:43PM 38.2867 -67.1531 134° Southeast 490 564 31,000  Level New York Center
03:45PM 38.2867 -67.1531 134° Southeast 490 564 31,000  Level New York Center
03:47PM 38.2867 -67.1531 134° Southeast 490 564 31,000  Level New York Center
03:47PM 35.2500 -65.6833 164° South 482 555 31,000  Level New York Oceanic (ODAPS)
03:48PM 38.2867 -67.1531 164° South 490 564 31,000  Level New York Center
03:50PM 38.2867 -67.1531 134° Southeast 490 564 31,000  Level New York Center
03:52PM 38.2867 -67.1531 134° Southeast 490 564 31,000  Level New York Center
03:54PM 38.2867 -67.1531 134° Southeast 490 564 31,000  Level New York Center
03:56PM 38.2867 -67.1531 134° Southeast 490 564 31,000  Level New York Center
03:58PM 38.2867 -67.1531 134° Southeast 490 564 31,000  Level New York Center
04:00PM 38.2867 -67.1531 134° Southeast 490 564 31,000  Level New York Center
04:02PM 38.2867 -67.1531 134° Southeast 490 564 31,000  Level New York Center
04:04PM 38.2867 -67.1531 134° Southeast 490 564 31,000  Level New York Center
04:06PM 38.2867 -67.1531 134° Southeast 490 564 31,000  Level New York Center
04:08PM 38.2867 -67.1531 134° Southeast 490 564 31,000  Level New York Center
04:10PM 38.2867 -67.1531 134° Southeast 490 564 31,000  Level New York Center
04:12PM 38.2867 -67.1531 134° Southeast 490 564 31,000  Level New York Center
04:14PM 38.2867 -67.1531 134° Southeast 490 564 31,000  Level New York Center
04:16PM 38.2867 -67.1531 134° Southeast 490 564 31,000  Level New York Center
04:18PM 38.2867 -67.1531 134° Southeast 490 564 31,000  Level New York Center
04:20PM 38.2867 -67.1531 134° Southeast 490 564 31,000  Level New York Center
04:22PM 38.2867 -67.1531 134° Southeast 490 564 31,000  Level New York Center
04:24PM 38.2867 -67.1531 134° Southeast 490 564 31,000  Level New York Center
04:26PM 38.2867 -67.1531 134° Southeast 490 564 31,000  Level New York Center
04:28PM 38.2867 -67.1531 134° Southeast 490 564 31,000  Level New York Center
04:30PM 38.2867 -67.1531 134° Southeast 490 564 31,000  Level New York Center
04:32PM 38.2867 -67.1531 134° Southeast 490 564 31,000  Level New York Center
04:34PM 38.2867 -67.1531 134° Southeast 490 564 31,000  Level New York Center
04:37PM 38.2867 -67.1531 134° Southeast 490 564 31,000  Level New York Center
04:39PM 38.2867 -67.1531 134° Southeast 490 564 31,000  Level New York Center
04:41PM 38.2867 -67.1531 134° Southeast 490 564 31,000  Level New York Center
04:43PM 38.2867 -67.1531 134° Southeast 490 564 31,000  Level New York Center
04:45PM 38.2867 -67.1531 134° Southeast 490 564 31,000  Level New York Center
04:47PM 38.2867 -67.1531 134° Southeast 490 564 31,000  Level New York Center
04:49PM 38.2867 -67.1531 134° Southeast 490 564 31,000  Level New York Center
04:51PM 38.2867 -67.1531 134° Southeast 490 564 31,000  Level New York Center
04:53PM 38.2867 -67.1531 134° Southeast 490 564 31,000  Level New York Center
04:55PM 38.2867 -67.1531 134° Southeast 490 564 31,000  Level New York Center
04:57PM 38.2867 -67.1531 134° Southeast 490 564 31,000  Level New York Center
04:59PM 38.2867 -67.1531 134° Southeast 490 564 31,000  Level New York Center
05:01PM 38.2867 -67.1531 134° Southeast 490 564 31,000  Level New York Center
05:03PM 38.2867 -67.1531 134° Southeast 490 564 31,000  Level New York Center
05:05PM 38.2867 -67.1531 134° Southeast 490 564 31,000  Level New York Center
05:07PM 38.2867 -67.1531 134° Southeast 490 564 31,000  Level New York Center
05:09PM 38.2867 -67.1531 134° Southeast 490 564 31,000  Level New York Center
05:11PM 38.2867 -67.1531 134° Southeast 490 564 31,000  Level New York Center
05:13PM 38.2867 -67.1531 134° Southeast 490 564 31,000  Level New York Center
05:15PM 38.2867 -67.1531 134° Southeast 490 564 31,000  Level New York Center
05:17PM 38.2867 -67.1531 134° Southeast 490 564 31,000  Level New York Center
05:19PM 38.2867 -67.1531 134° Southeast 490 564 31,000  Level New York Center
05:21PM 38.2867 -67.1531 134° Southeast 490 564 31,000  Level New York Center
05:23PM 38.2867 -67.1531 134° Southeast 490 564 31,000  Level New York Center
05:25PM 38.2867 -67.1531 134° Southeast 490 564 31,000  Level New York Center
05:27PM 38.2867 -67.1531 134° Southeast 490 564 31,000  Level New York Center
05:29PM 38.2867 -67.1531 134° Southeast 490 564 31,000  Level New York Center
05:31PM 38.2867 -67.1531 134° Southeast 490 564 31,000  Level New York Center
05:33PM 38.2867 -67.1531 134° Southeast 490 564 31,000  Level New York Center
05:35PM 38.2867 -67.1531 134° Southeast 490 564 31,000  Level New York Center
05:37PM 38.2867 -67.1531 134° Southeast 490 564 31,000  Level New York Center
05:39PM 38.2867 -67.1531 134° Southeast 490 564 31,000  Level New York Center
05:41PM 38.2867 -67.1531 134° Southeast 490 564 31,000  Level New York Center
05:43PM 38.2867 -67.1531 134° Southeast 490 564 31,000  Level New York Center
05:45PM 38.2867 -67.1531 134° Southeast 490 564 31,000  Level New York Center
05:47PM 38.2867 -67.1531 134° Southeast 490 564 31,000  Level New York Center
05:49PM 38.2867 -67.1531 134° Southeast 490 564 31,000  Level New York Center
05:51PM 38.2867 -67.1531 134° Southeast 490 564 31,000  Level New York Center
05:53PM 38.2867 -67.1531 134° Southeast 490 564 31,000  Level New York Center
05:55PM 38.2867 -67.1531 134° Southeast 490 564 31,000  Level New York Center
05:57PM 38.2867 -67.1531 134° Southeast 490 564 31,000  Level New York Center
05:59PM 38.2867 -67.1531 134° Southeast 490 564 31,000  Level New York Center
06:01PM 38.2867 -67.1531 134° Southeast 490 564 31,000  Level New York Center
06:03PM 38.2867 -67.1531 134° Southeast 490 564 31,000  Level New York Center
06:05PM 38.2867 -67.1531 134° Southeast 490 564 31,000  Level New York Center
06:07PM 38.2867 -67.1531 134° Southeast 490 564 31,000  Level New York Center
06:09PM 38.2867 -67.1531 134° Southeast 490 564 31,000  Level New York Center
06:11PM 38.2867 -67.1531 134° Southeast 490 564 31,000  Level New York Center
06:13PM 38.2867 -67.1531 134° Southeast 490 564 31,000  Level New York Center
06:15PM 38.2867 -67.1531 134° Southeast 490 564 31,000  Level New York Center
06:17PM 38.2867 -67.1531 134° Southeast 490 564 31,000  Level New York Center
06:19PM 38.2867 -67.1531 134° Southeast 490 564 31,000  Level New York Center
06:21PM 38.2867 -67.1531 134° Southeast 490 564 31,000  Level New York Center
06:23PM 38.2867 -67.1531 134° Southeast 490 564 31,000  Level New York Center
06:25PM 38.2867 -67.1531 134° Southeast 490 564 31,000  Level New York Center
06:27PM 38.2867 -67.1531 134° Southeast 490 564 31,000  Level New York Center
06:29PM 38.2867 -67.1531 134° Southeast 490 564 31,000  Level New York Center
06:31PM 38.2867 -67.1531 134° Southeast 490 564 31,000  Level New York Center
06:33PM 38.2867 -67.1531 134° Southeast 490 564 31,000  Level New York Center
06:35PM 38.2867 -67.1531 134° Southeast 490 564 31,000  Level New York Center
06:37PM 38.2867 -67.1531 134° Southeast 490 564 31,000  Level New York Center
06:39PM 38.2867 -67.1531 134° Southeast 490 564 31,000  Level New York Center
06:41PM 38.2867 -67.1531 134° Southeast 490 564 31,000  Level New York Center
06:43PM 38.2867 -67.1531 134° Southeast 490 564 31,000  Level New York Center
06:45PM 38.2867 -67.1531 134° Southeast 490 564 31,000  Level New York Center
06:47PM 38.2867 -67.1531 134° Southeast 490 564 31,000  Level New York Center
06:49PM 38.2867 -67.1531 134° Southeast 490 564 31,000  Level New York Center
06:51PM 38.2867 -67.1531 134° Southeast 490 564 31,000  Level New York Center
06:53PM 38.2867 -67.1531 134° Southeast 490 564 31,000  Level New York Center